sensor_id;sensor_type;location;lat;lon;timestamp;temperature;humidity
18807;DHT22;9531;52.030;4.380;2022-12-20T19:25:51;18.80;99.90
18807;DHT22;9531;52.030;4.380;2022-12-20T19:28:19;16.00;99.90
18807;DHT22;9531;52.030;4.380;2022-12-20T19:30:47;14.00;99.90
18807;DHT22;9531;52.030;4.380;2022-12-20T19:33:13;12.60;99.90
18807;DHT22;9531;52.030;4.380;2022-12-20T19:35:40;11.80;99.90
18807;DHT22;9531;52.030;4.380;2022-12-20T19:38:07;11.20;99.90
18807;DHT22;9531;52.030;4.380;2022-12-20T19:40:34;10.80;99.90
18807;DHT22;9531;52.030;4.380;2022-12-20T19:43:04;10.60;99.90
18807;DHT22;9531;52.030;4.380;2022-12-20T19:45:36;10.40;99.90
18807;DHT22;9531;52.030;4.380;2022-12-20T19:48:03;10.20;99.90
18807;DHT22;9531;52.030;4.380;2022-12-20T19:50:30;10.20;99.90
18807;DHT22;9531;52.030;4.380;2022-12-20T19:52:57;10.00;99.90
18807;DHT22;9531;52.030;4.380;2022-12-20T19:55:24;10.00;99.90
18807;DHT22;9531;52.030;4.380;2022-12-20T19:57:52;9.90;1.00
18807;DHT22;9531;52.030;4.380;2022-12-20T20:00:22;9.90;1.00
18807;DHT22;9531;52.030;4.380;2022-12-20T20:02:51;9.80;1.00
18807;DHT22;9531;52.030;4.380;2022-12-20T20:05:19;9.80;1.00
18807;DHT22;9531;52.030;4.380;2022-12-20T20:07:46;9.70;1.00
18807;DHT22;9531;52.030;4.380;2022-12-20T20:10:12;9.70;1.00
18807;DHT22;9531;52.030;4.380;2022-12-20T20:12:39;9.60;1.00
18807;DHT22;9531;52.030;4.380;2022-12-20T20:15:07;9.60;1.00
18807;DHT22;9531;52.030;4.380;2022-12-20T20:17:36;9.60;1.00
18807;DHT22;9531;52.030;4.380;2022-12-20T20:20:03;9.60;1.00
18807;DHT22;9531;52.030;4.380;2022-12-20T20:22:35;9.50;1.00
18807;DHT22;9531;52.030;4.380;2022-12-20T20:25:01;9.50;1.00
18807;DHT22;9531;52.030;4.380;2022-12-20T20:27:29;9.50;1.00
18807;DHT22;9531;52.030;4.380;2022-12-20T20:29:56;9.50;1.00
18807;DHT22;9531;52.030;4.380;2022-12-20T20:32:23;9.50;1.00
18807;DHT22;9531;52.030;4.380;2022-12-20T20:34:52;9.40;1.00
18807;DHT22;9531;52.030;4.380;2022-12-20T20:37:19;9.40;1.00
18807;DHT22;9531;52.030;4.380;2022-12-20T20:39:48;9.40;1.00
18807;DHT22;9531;52.030;4.380;2022-12-20T20:42:14;9.40;1.00
18807;DHT22;9531;52.030;4.380;2022-12-20T20:44:41;9.40;1.00
18807;DHT22;9531;52.030;4.380;2022-12-20T20:47:08;9.40;1.00
18807;DHT22;9531;52.030;4.380;2022-12-20T20:49:35;9.40;1.00
18807;DHT22;9531;52.030;4.380;2022-12-20T20:52:04;9.40;1.00
18807;DHT22;9531;52.030;4.380;2022-12-20T20:54:31;9.30;1.00
18807;DHT22;9531;52.030;4.380;2022-12-20T20:56:58;9.30;1.00
18807;DHT22;9531;52.030;4.380;2022-12-20T20:59:24;9.30;1.00
18807;DHT22;9531;52.030;4.380;2022-12-20T21:01:51;9.20;1.00
18807;DHT22;9531;52.030;4.380;2022-12-20T21:04:19;9.20;1.00
18807;DHT22;9531;52.030;4.380;2022-12-20T21:06:46;9.20;1.00
18807;DHT22;9531;52.030;4.380;2022-12-20T21:09:14;9.20;1.00
18807;DHT22;9531;52.030;4.380;2022-12-20T21:11:41;9.20;1.00
18807;DHT22;9531;52.030;4.380;2022-12-20T21:14:08;9.20;1.00
18807;DHT22;9531;52.030;4.380;2022-12-20T21:16:35;11.00;1.00
18807;DHT22;9531;52.030;4.380;2022-12-20T21:19:02;9.10;1.00
18807;DHT22;9531;52.030;4.380;2022-12-20T21:21:30;9.10;1.00
18807;DHT22;9531;52.030;4.380;2022-12-20T21:23:57;9.10;1.00
18807;DHT22;9531;52.030;4.380;2022-12-20T21:26:25;9.10;1.00
18807;DHT22;9531;52.030;4.380;2022-12-20T21:28:55;9.10;1.00
18807;DHT22;9531;52.030;4.380;2022-12-20T21:31:22;11.10;1.00
18807;DHT22;9531;52.030;4.380;2022-12-20T21:33:49;9.10;1.00
18807;DHT22;9531;52.030;4.380;2022-12-20T21:36:18;9.10;1.00
18807;DHT22;9531;52.030;4.380;2022-12-20T21:38:46;9.00;1.00
18807;DHT22;9531;52.030;4.380;2022-12-20T21:41:15;9.00;1.00
18807;DHT22;9531;52.030;4.380;2022-12-20T21:43:43;9.00;1.00
18807;DHT22;9531;52.030;4.380;2022-12-20T21:46:10;9.00;1.00
18807;DHT22;9531;52.030;4.380;2022-12-20T21:48:38;8.90;1.00
18807;DHT22;9531;52.030;4.380;2022-12-20T21:51:07;8.90;1.00
18807;DHT22;9531;52.030;4.380;2022-12-20T21:53:35;8.90;1.00
18807;DHT22;9531;52.030;4.380;2022-12-20T21:56:04;8.80;1.00
18807;DHT22;9531;52.030;4.380;2022-12-20T21:58:31;8.80;1.00
18807;DHT22;9531;52.030;4.380;2022-12-20T22:01:02;8.80;1.00
18807;DHT22;9531;52.030;4.380;2022-12-20T22:03:29;8.80;1.00
18807;DHT22;9531;52.030;4.380;2022-12-20T22:05:57;8.80;1.00
18807;DHT22;9531;52.030;4.380;2022-12-20T22:08:25;8.70;1.00
18807;DHT22;9531;52.030;4.380;2022-12-20T22:11:00;8.70;1.00
18807;DHT22;9531;52.030;4.380;2022-12-20T22:13:28;8.60;1.00
18807;DHT22;9531;52.030;4.380;2022-12-20T22:15:57;8.60;1.00
18807;DHT22;9531;52.030;4.380;2022-12-20T22:18:26;8.60;1.00
18807;DHT22;9531;52.030;4.380;2022-12-20T22:20:54;8.50;1.00
18807;DHT22;9531;52.030;4.380;2022-12-20T22:23:21;8.50;1.00
18807;DHT22;9531;52.030;4.380;2022-12-20T22:25:49;8.50;1.00
18807;DHT22;9531;52.030;4.380;2022-12-20T22:28:16;8.50;1.00
18807;DHT22;9531;52.030;4.380;2022-12-20T22:30:43;8.40;1.00
18807;DHT22;9531;52.030;4.380;2022-12-20T22:33:10;8.40;1.00
18807;DHT22;9531;52.030;4.380;2022-12-20T22:35:38;8.40;1.00
18807;DHT22;9531;52.030;4.380;2022-12-20T22:38:05;8.30;1.00
18807;DHT22;9531;52.030;4.380;2022-12-20T22:40:32;8.30;1.00
18807;DHT22;9531;52.030;4.380;2022-12-20T22:42:59;8.30;1.00
18807;DHT22;9531;52.030;4.380;2022-12-20T22:45:26;8.30;1.00
18807;DHT22;9531;52.030;4.380;2022-12-20T22:47:53;8.20;1.00
18807;DHT22;9531;52.030;4.380;2022-12-20T22:50:20;8.20;1.00
18807;DHT22;9531;52.030;4.380;2022-12-20T22:52:48;8.20;1.00
18807;DHT22;9531;52.030;4.380;2022-12-20T22:55:15;8.20;1.00
18807;DHT22;9531;52.030;4.380;2022-12-20T22:57:42;8.10;1.00
18807;DHT22;9531;52.030;4.380;2022-12-20T23:00:10;8.10;1.00
18807;DHT22;9531;52.030;4.380;2022-12-20T23:02:38;8.10;1.00
18807;DHT22;9531;52.030;4.380;2022-12-20T23:05:06;8.10;1.00
18807;DHT22;9531;52.030;4.380;2022-12-20T23:07:34;8.10;1.00
18807;DHT22;9531;52.030;4.380;2022-12-20T23:10:02;8.10;1.00
18807;DHT22;9531;52.030;4.380;2022-12-20T23:12:29;8.10;1.00
18807;DHT22;9531;52.030;4.380;2022-12-20T23:15:13;8.10;1.00
18807;DHT22;9531;52.030;4.380;2022-12-20T23:17:57;8.10;1.00
18807;DHT22;9531;52.030;4.380;2022-12-20T23:20:24;8.10;1.00
18807;DHT22;9531;52.030;4.380;2022-12-20T23:23:11;8.10;1.00
18807;DHT22;9531;52.030;4.380;2022-12-20T23:25:39;8.00;1.00
18807;DHT22;9531;52.030;4.380;2022-12-20T23:28:07;8.00;1.00
18807;DHT22;9531;52.030;4.380;2022-12-20T23:30:34;8.00;1.00
18807;DHT22;9531;52.030;4.380;2022-12-20T23:33:02;8.00;1.00
18807;DHT22;9531;52.030;4.380;2022-12-20T23:35:29;7.90;1.00
18807;DHT22;9531;52.030;4.380;2022-12-20T23:37:56;7.90;1.00
18807;DHT22;9531;52.030;4.380;2022-12-20T23:40:23;7.80;1.00
18807;DHT22;9531;52.030;4.380;2022-12-20T23:42:52;7.80;1.00
18807;DHT22;9531;52.030;4.380;2022-12-20T23:45:19;7.80;1.00
18807;DHT22;9531;52.030;4.380;2022-12-20T23:47:46;7.80;1.00
18807;DHT22;9531;52.030;4.380;2022-12-20T23:50:13;7.70;1.00
18807;DHT22;9531;52.030;4.380;2022-12-20T23:52:41;7.70;1.00
18807;DHT22;9531;52.030;4.380;2022-12-20T23:55:08;7.70;1.00
18807;DHT22;9531;52.030;4.380;2022-12-20T23:57:35;7.60;1.00
